sensor_id;sensor_type;location;lat;lon;timestamp;temperature;humidity
14687;DHT22;7431;49.440;11.084;2023-03-14T00:02:18;9.30;99.90
14687;DHT22;7431;49.440;11.084;2023-03-14T00:04:44;9.30;99.90
14687;DHT22;7431;49.440;11.084;2023-03-14T00:07:11;9.30;99.90
14687;DHT22;7431;49.440;11.084;2023-03-14T00:09:37;10.80;99.90
14687;DHT22;7431;49.440;11.084;2023-03-14T00:12:03;9.40;99.90
14687;DHT22;7431;49.440;11.084;2023-03-14T00:14:30;9.40;99.90
14687;DHT22;7431;49.440;11.084;2023-03-14T00:16:56;9.40;99.90
14687;DHT22;7431;49.440;11.084;2023-03-14T00:19:22;9.40;99.90
14687;DHT22;7431;49.440;11.084;2023-03-14T00:21:47;9.40;99.90
14687;DHT22;7431;49.440;11.084;2023-03-14T00:24:13;9.40;99.90
14687;DHT22;7431;49.440;11.084;2023-03-14T00:26:39;9.40;99.90
14687;DHT22;7431;49.440;11.084;2023-03-14T00:29:04;9.40;99.90
14687;DHT22;7431;49.440;11.084;2023-03-14T00:31:30;9.40;99.90
14687;DHT22;7431;49.440;11.084;2023-03-14T00:33:57;9.40;99.90
14687;DHT22;7431;49.440;11.084;2023-03-14T00:36:22;9.30;99.90
14687;DHT22;7431;49.440;11.084;2023-03-14T00:38:50;9.40;99.90
14687;DHT22;7431;49.440;11.084;2023-03-14T00:41:19;9.50;99.90
14687;DHT22;7431;49.440;11.084;2023-03-14T00:43:45;9.30;99.90
14687;DHT22;7431;49.440;11.084;2023-03-14T00:46:12;9.40;99.90
14687;DHT22;7431;49.440;11.084;2023-03-14T00:48:38;9.60;99.90
14687;DHT22;7431;49.440;11.084;2023-03-14T00:51:06;9.40;99.90
14687;DHT22;7431;49.440;11.084;2023-03-14T00:53:35;9.30;99.90
14687;DHT22;7431;49.440;11.084;2023-03-14T00:56:07;9.40;99.90
14687;DHT22;7431;49.440;11.084;2023-03-14T00:58:33;9.40;99.90
14687;DHT22;7431;49.440;11.084;2023-03-14T01:00:58;9.40;99.90
14687;DHT22;7431;49.440;11.084;2023-03-14T01:03:24;9.40;99.90
14687;DHT22;7431;49.440;11.084;2023-03-14T01:05:50;9.40;99.90
14687;DHT22;7431;49.440;11.084;2023-03-14T01:08:16;9.40;99.90
14687;DHT22;7431;49.440;11.084;2023-03-14T01:10:42;9.40;99.90
14687;DHT22;7431;49.440;11.084;2023-03-14T01:13:08;9.50;99.90
14687;DHT22;7431;49.440;11.084;2023-03-14T01:15:35;9.40;99.90
14687;DHT22;7431;49.440;11.084;2023-03-14T01:18:00;9.40;99.90
14687;DHT22;7431;49.440;11.084;2023-03-14T01:20:26;9.40;99.90
14687;DHT22;7431;49.440;11.084;2023-03-14T01:22:52;9.40;99.90
14687;DHT22;7431;49.440;11.084;2023-03-14T01:25:18;9.30;99.90
14687;DHT22;7431;49.440;11.084;2023-03-14T01:27:44;9.30;99.90
14687;DHT22;7431;49.440;11.084;2023-03-14T01:30:11;9.40;99.90
14687;DHT22;7431;49.440;11.084;2023-03-14T01:32:37;9.30;99.90
14687;DHT22;7431;49.440;11.084;2023-03-14T01:35:03;9.30;99.90
14687;DHT22;7431;49.440;11.084;2023-03-14T01:37:29;9.30;99.90
14687;DHT22;7431;49.440;11.084;2023-03-14T01:39:55;9.30;99.90
14687;DHT22;7431;49.440;11.084;2023-03-14T01:42:20;9.30;99.90
14687;DHT22;7431;49.440;11.084;2023-03-14T01:44:57;9.30;99.90
14687;DHT22;7431;49.440;11.084;2023-03-14T01:47:23;9.30;99.90
14687;DHT22;7431;49.440;11.084;2023-03-14T01:52:26;9.20;99.90
14687;DHT22;7431;49.440;11.084;2023-03-14T01:54:59;9.30;99.90
14687;DHT22;7431;49.440;11.084;2023-03-14T02:02:22;9.30;99.90
14687;DHT22;7431;49.440;11.084;2023-03-14T02:04:48;9.40;99.90
14687;DHT22;7431;49.440;11.084;2023-03-14T02:07:35;9.30;99.90
14687;DHT22;7431;49.440;11.084;2023-03-14T02:10:03;9.40;99.90
14687;DHT22;7431;49.440;11.084;2023-03-14T02:12:29;9.40;99.90
14687;DHT22;7431;49.440;11.084;2023-03-14T02:14:55;9.40;99.90
14687;DHT22;7431;49.440;11.084;2023-03-14T02:17:22;9.40;99.90
14687;DHT22;7431;49.440;11.084;2023-03-14T02:22:37;9.50;99.90
14687;DHT22;7431;49.440;11.084;2023-03-14T02:25:24;9.60;99.90
14687;DHT22;7431;49.440;11.084;2023-03-14T02:27:52;9.50;99.90
14687;DHT22;7431;49.440;11.084;2023-03-14T02:30:23;9.50;99.90
14687;DHT22;7431;49.440;11.084;2023-03-14T02:32:54;9.50;99.90
14687;DHT22;7431;49.440;11.084;2023-03-14T02:35:24;9.40;99.90
14687;DHT22;7431;49.440;11.084;2023-03-14T02:37:52;9.40;99.90
14687;DHT22;7431;49.440;11.084;2023-03-14T02:40:18;9.40;99.90
14687;DHT22;7431;49.440;11.084;2023-03-14T02:42:44;9.40;99.90
14687;DHT22;7431;49.440;11.084;2023-03-14T02:47:39;9.40;99.90
14687;DHT22;7431;49.440;11.084;2023-03-14T02:50:13;9.40;99.90
14687;DHT22;7431;49.440;11.084;2023-03-14T02:52:39;9.40;99.90
14687;DHT22;7431;49.440;11.084;2023-03-14T02:55:05;9.40;99.90
14687;DHT22;7431;49.440;11.084;2023-03-14T02:57:31;9.30;99.90
14687;DHT22;7431;49.440;11.084;2023-03-14T03:00:00;9.30;99.90
14687;DHT22;7431;49.440;11.084;2023-03-14T03:02:29;9.20;99.90
14687;DHT22;7431;49.440;11.084;2023-03-14T03:04:54;9.20;99.90
14687;DHT22;7431;49.440;11.084;2023-03-14T03:07:20;9.20;99.90
14687;DHT22;7431;49.440;11.084;2023-03-14T03:09:46;9.10;99.90
14687;DHT22;7431;49.440;11.084;2023-03-14T03:12:12;9.00;99.90
14687;DHT22;7431;49.440;11.084;2023-03-14T03:14:37;9.00;99.90
14687;DHT22;7431;49.440;11.084;2023-03-14T03:17:04;9.00;99.90
14687;DHT22;7431;49.440;11.084;2023-03-14T03:19:31;9.00;99.90
14687;DHT22;7431;49.440;11.084;2023-03-14T03:21:57;9.00;99.90
14687;DHT22;7431;49.440;11.084;2023-03-14T03:24:23;8.90;99.90
14687;DHT22;7431;49.440;11.084;2023-03-14T03:26:49;9.00;99.90
14687;DHT22;7431;49.440;11.084;2023-03-14T03:29:15;9.00;99.90
14687;DHT22;7431;49.440;11.084;2023-03-14T03:31:41;8.90;99.90
14687;DHT22;7431;49.440;11.084;2023-03-14T03:34:06;8.90;99.90
14687;DHT22;7431;49.440;11.084;2023-03-14T03:36:33;8.80;99.90
14687;DHT22;7431;49.440;11.084;2023-03-14T03:38:58;8.80;99.90
14687;DHT22;7431;49.440;11.084;2023-03-14T03:41:24;8.80;99.90
14687;DHT22;7431;49.440;11.084;2023-03-14T03:43:49;8.70;99.90
14687;DHT22;7431;49.440;11.084;2023-03-14T03:46:15;8.70;99.90
14687;DHT22;7431;49.440;11.084;2023-03-14T03:48:41;8.70;99.90
14687;DHT22;7431;49.440;11.084;2023-03-14T03:51:06;8.70;99.90
14687;DHT22;7431;49.440;11.084;2023-03-14T03:53:32;8.70;99.90
14687;DHT22;7431;49.440;11.084;2023-03-14T03:55:58;8.70;99.90
14687;DHT22;7431;49.440;11.084;2023-03-14T03:58:23;8.70;99.90
14687;DHT22;7431;49.440;11.084;2023-03-14T04:00:49;8.60;99.90
14687;DHT22;7431;49.440;11.084;2023-03-14T04:03:14;8.60;99.90
14687;DHT22;7431;49.440;11.084;2023-03-14T04:05:40;8.60;99.90
14687;DHT22;7431;49.440;11.084;2023-03-14T04:08:05;8.60;99.90
14687;DHT22;7431;49.440;11.084;2023-03-14T04:10:34;8.60;99.90
14687;DHT22;7431;49.440;11.084;2023-03-14T04:13:00;8.60;99.90
14687;DHT22;7431;49.440;11.084;2023-03-14T04:15:25;8.50;99.90
14687;DHT22;7431;49.440;11.084;2023-03-14T04:17:51;8.50;99.90
14687;DHT22;7431;49.440;11.084;2023-03-14T04:20:16;8.50;99.90
14687;DHT22;7431;49.440;11.084;2023-03-14T04:22:42;8.50;99.90
14687;DHT22;7431;49.440;11.084;2023-03-14T04:25:08;8.50;99.90
14687;DHT22;7431;49.440;11.084;2023-03-14T04:27:33;8.50;99.90
14687;DHT22;7431;49.440;11.084;2023-03-14T04:29:59;8.50;99.90
14687;DHT22;7431;49.440;11.084;2023-03-14T04:32:24;8.50;99.90
14687;DHT22;7431;49.440;11.084;2023-03-14T04:34:50;8.40;99.90
14687;DHT22;7431;49.440;11.084;2023-03-14T04:37:15;8.40;99.90
14687;DHT22;7431;49.440;11.084;2023-03-14T04:39:41;8.40;99.90
14687;DHT22;7431;49.440;11.084;2023-03-14T04:42:07;8.40;99.90
14687;DHT22;7431;49.440;11.084;2023-03-14T04:44:32;8.40;99.90
14687;DHT22;7431;49.440;11.084;2023-03-14T04:46:58;8.30;99.90
14687;DHT22;7431;49.440;11.084;2023-03-14T04:49:24;8.30;99.90
14687;DHT22;7431;49.440;11.084;2023-03-14T04:51:49;8.30;99.90
14687;DHT22;7431;49.440;11.084;2023-03-14T04:54:18;8.30;99.90
14687;DHT22;7431;49.440;11.084;2023-03-14T04:56:44;8.30;99.90
14687;DHT22;7431;49.440;11.084;2023-03-14T04:59:09;8.30;99.90
14687;DHT22;7431;49.440;11.084;2023-03-14T05:01:35;8.30;99.90
14687;DHT22;7431;49.440;11.084;2023-03-14T05:04:01;8.30;99.90
14687;DHT22;7431;49.440;11.084;2023-03-14T05:06:27;8.30;99.90
14687;DHT22;7431;49.440;11.084;2023-03-14T05:08:52;8.20;99.90
14687;DHT22;7431;49.440;11.084;2023-03-14T05:11:18;8.20;99.90
14687;DHT22;7431;49.440;11.084;2023-03-14T05:13:44;8.20;99.90
14687;DHT22;7431;49.440;11.084;2023-03-14T05:16:10;8.20;99.90
14687;DHT22;7431;49.440;11.084;2023-03-14T05:18:36;8.20;99.90
14687;DHT22;7431;49.440;11.084;2023-03-14T05:21:03;8.20;99.90
14687;DHT22;7431;49.440;11.084;2023-03-14T05:23:29;8.10;99.90
14687;DHT22;7431;49.440;11.084;2023-03-14T05:25:54;8.10;99.90
14687;DHT22;7431;49.440;11.084;2023-03-14T05:28:20;8.10;99.90
14687;DHT22;7431;49.440;11.084;2023-03-14T05:30:46;8.10;99.90
14687;DHT22;7431;49.440;11.084;2023-03-14T05:33:12;8.00;99.90
14687;DHT22;7431;49.440;11.084;2023-03-14T05:35:37;8.00;99.90
14687;DHT22;7431;49.440;11.084;2023-03-14T05:38:03;8.00;99.90
14687;DHT22;7431;49.440;11.084;2023-03-14T05:40:29;8.00;99.90
14687;DHT22;7431;49.440;11.084;2023-03-14T05:42:54;8.00;99.90
14687;DHT22;7431;49.440;11.084;2023-03-14T05:45:20;8.10;99.90
14687;DHT22;7431;49.440;11.084;2023-03-14T05:47:45;8.10;99.90
14687;DHT22;7431;49.440;11.084;2023-03-14T05:50:11;8.10;99.90
14687;DHT22;7431;49.440;11.084;2023-03-14T05:52:37;8.10;99.90
14687;DHT22;7431;49.440;11.084;2023-03-14T05:55:03;8.10;99.90
14687;DHT22;7431;49.440;11.084;2023-03-14T05:57:28;8.10;99.90
14687;DHT22;7431;49.440;11.084;2023-03-14T05:59:54;8.10;99.90
14687;DHT22;7431;49.440;11.084;2023-03-14T06:02:19;8.20;99.90
14687;DHT22;7431;49.440;11.084;2023-03-14T06:04:45;8.20;99.90
14687;DHT22;7431;49.440;11.084;2023-03-14T06:07:11;8.20;99.90
14687;DHT22;7431;49.440;11.084;2023-03-14T06:09:36;8.20;99.90
14687;DHT22;7431;49.440;11.084;2023-03-14T06:12:03;8.20;99.90
14687;DHT22;7431;49.440;11.084;2023-03-14T06:14:28;8.20;99.90
14687;DHT22;7431;49.440;11.084;2023-03-14T06:16:54;8.20;99.90
14687;DHT22;7431;49.440;11.084;2023-03-14T06:19:19;8.30;99.90
14687;DHT22;7431;49.440;11.084;2023-03-14T06:21:45;8.30;99.90
14687;DHT22;7431;49.440;11.084;2023-03-14T06:24:11;8.40;99.90
14687;DHT22;7431;49.440;11.084;2023-03-14T06:26:36;8.40;99.90
14687;DHT22;7431;49.440;11.084;2023-03-14T06:29:02;8.50;99.90
14687;DHT22;7431;49.440;11.084;2023-03-14T06:31:30;8.60;99.90
14687;DHT22;7431;49.440;11.084;2023-03-14T06:33:56;8.70;99.90
14687;DHT22;7431;49.440;11.084;2023-03-14T06:36:21;8.80;99.90
14687;DHT22;7431;49.440;11.084;2023-03-14T06:38:47;8.90;99.90
14687;DHT22;7431;49.440;11.084;2023-03-14T06:41:12;9.00;99.90
14687;DHT22;7431;49.440;11.084;2023-03-14T06:43:38;9.00;99.90
14687;DHT22;7431;49.440;11.084;2023-03-14T06:46:04;9.00;99.90
14687;DHT22;7431;49.440;11.084;2023-03-14T06:48:29;9.00;99.90
14687;DHT22;7431;49.440;11.084;2023-03-14T06:50:55;9.00;99.90
14687;DHT22;7431;49.440;11.084;2023-03-14T06:53:20;9.00;99.90
14687;DHT22;7431;49.440;11.084;2023-03-14T06:55:46;9.00;99.90
14687;DHT22;7431;49.440;11.084;2023-03-14T06:58:12;9.10;99.90
14687;DHT22;7431;49.440;11.084;2023-03-14T07:00:38;9.20;99.90
14687;DHT22;7431;49.440;11.084;2023-03-14T07:03:03;9.30;99.90
14687;DHT22;7431;49.440;11.084;2023-03-14T07:05:29;9.40;99.90
14687;DHT22;7431;49.440;11.084;2023-03-14T07:07:54;9.50;99.90
14687;DHT22;7431;49.440;11.084;2023-03-14T07:10:20;9.50;99.90
14687;DHT22;7431;49.440;11.084;2023-03-14T07:12:45;9.60;99.90
14687;DHT22;7431;49.440;11.084;2023-03-14T07:15:11;9.70;99.90
14687;DHT22;7431;49.440;11.084;2023-03-14T07:17:37;9.80;99.90
14687;DHT22;7431;49.440;11.084;2023-03-14T07:20:03;9.90;99.90
14687;DHT22;7431;49.440;11.084;2023-03-14T07:22:30;9.80;99.90
14687;DHT22;7431;49.440;11.084;2023-03-14T07:24:56;9.90;99.90
14687;DHT22;7431;49.440;11.084;2023-03-14T07:27:21;9.90;99.90
14687;DHT22;7431;49.440;11.084;2023-03-14T07:29:47;9.90;99.90
14687;DHT22;7431;49.440;11.084;2023-03-14T07:32:12;10.00;99.90
14687;DHT22;7431;49.440;11.084;2023-03-14T07:34:41;10.10;99.90
14687;DHT22;7431;49.440;11.084;2023-03-14T07:37:06;10.00;99.90
14687;DHT22;7431;49.440;11.084;2023-03-14T07:39:32;10.00;99.90
14687;DHT22;7431;49.440;11.084;2023-03-14T07:41:58;10.10;99.90
14687;DHT22;7431;49.440;11.084;2023-03-14T07:44:23;10.10;99.90
14687;DHT22;7431;49.440;11.084;2023-03-14T07:46:49;10.10;99.90
14687;DHT22;7431;49.440;11.084;2023-03-14T07:49:14;10.20;99.90
14687;DHT22;7431;49.440;11.084;2023-03-14T07:51:40;10.20;99.90
14687;DHT22;7431;49.440;11.084;2023-03-14T07:54:06;10.30;99.90
14687;DHT22;7431;49.440;11.084;2023-03-14T07:56:31;10.30;99.90
14687;DHT22;7431;49.440;11.084;2023-03-14T07:58:57;10.40;99.90
14687;DHT22;7431;49.440;11.084;2023-03-14T08:01:23;10.50;99.90
14687;DHT22;7431;49.440;11.084;2023-03-14T08:03:49;10.70;99.90
14687;DHT22;7431;49.440;11.084;2023-03-14T08:06:14;10.80;99.90
14687;DHT22;7431;49.440;11.084;2023-03-14T08:08:40;10.90;99.90
14687;DHT22;7431;49.440;11.084;2023-03-14T08:11:06;11.30;99.90
14687;DHT22;7431;49.440;11.084;2023-03-14T08:13:35;11.70;99.90
14687;DHT22;7431;49.440;11.084;2023-03-14T08:16:01;12.40;99.90
14687;DHT22;7431;49.440;11.084;2023-03-14T08:18:27;13.40;99.90
14687;DHT22;7431;49.440;11.084;2023-03-14T08:20:52;13.90;99.90
14687;DHT22;7431;49.440;11.084;2023-03-14T08:23:18;14.30;99.90
14687;DHT22;7431;49.440;11.084;2023-03-14T08:25:43;14.30;99.90
14687;DHT22;7431;49.440;11.084;2023-03-14T08:28:09;14.20;99.90
14687;DHT22;7431;49.440;11.084;2023-03-14T13:57:47;11.60;99.90
14687;DHT22;7431;49.440;11.084;2023-03-14T14:02:47;11.40;99.90
14687;DHT22;7431;49.440;11.084;2023-03-14T14:05:14;11.30;99.90
14687;DHT22;7431;49.440;11.084;2023-03-14T14:07:40;11.30;99.90
14687;DHT22;7431;49.440;11.084;2023-03-14T14:10:11;11.20;99.90
14687;DHT22;7431;49.440;11.084;2023-03-14T14:12:48;11.20;99.90
14687;DHT22;7431;49.440;11.084;2023-03-14T14:15:20;11.20;99.90
14687;DHT22;7431;49.440;11.084;2023-03-14T14:17:53;11.10;99.90
14687;DHT22;7431;49.440;11.084;2023-03-14T14:22:49;11.10;99.90
14687;DHT22;7431;49.440;11.084;2023-03-14T14:25:15;11.10;99.90
14687;DHT22;7431;49.440;11.084;2023-03-14T14:27:43;11.30;99.90
14687;DHT22;7431;49.440;11.084;2023-03-14T14:32:46;11.50;99.90
14687;DHT22;7431;49.440;11.084;2023-03-14T14:35:33;11.50;99.90
14687;DHT22;7431;49.440;11.084;2023-03-14T14:38:00;11.30;99.90
14687;DHT22;7431;49.440;11.084;2023-03-14T14:40:28;11.10;99.90
14687;DHT22;7431;49.440;11.084;2023-03-14T14:42:55;11.10;99.90
14687;DHT22;7431;49.440;11.084;2023-03-14T14:45:27;11.10;99.90
14687;DHT22;7431;49.440;11.084;2023-03-14T14:47:56;11.00;99.90
14687;DHT22;7431;49.440;11.084;2023-03-14T14:50:29;10.90;99.90
14687;DHT22;7431;49.440;11.084;2023-03-14T14:53:01;10.80;99.90
14687;DHT22;7431;49.440;11.084;2023-03-14T14:55:39;10.60;99.90
14687;DHT22;7431;49.440;11.084;2023-03-14T14:58:35;10.50;99.90
14687;DHT22;7431;49.440;11.084;2023-03-14T15:03:39;10.20;99.90
14687;DHT22;7431;49.440;11.084;2023-03-14T15:06:08;9.90;99.90
14687;DHT22;7431;49.440;11.084;2023-03-14T15:08:37;9.70;99.90
14687;DHT22;7431;49.440;11.084;2023-03-14T15:11:03;9.40;99.90
14687;DHT22;7431;49.440;11.084;2023-03-14T15:13:28;9.30;99.90
14687;DHT22;7431;49.440;11.084;2023-03-14T15:15:54;9.20;99.90
14687;DHT22;7431;49.440;11.084;2023-03-14T15:18:25;9.10;99.90
14687;DHT22;7431;49.440;11.084;2023-03-14T15:20:51;9.00;99.90
14687;DHT22;7431;49.440;11.084;2023-03-14T15:23:19;8.80;99.90
14687;DHT22;7431;49.440;11.084;2023-03-14T15:25:45;8.80;99.90
14687;DHT22;7431;49.440;11.084;2023-03-14T15:30:40;8.70;99.90
14687;DHT22;7431;49.440;11.084;2023-03-14T15:33:06;8.60;99.90
14687;DHT22;7431;49.440;11.084;2023-03-14T15:35:37;8.60;99.90
14687;DHT22;7431;49.440;11.084;2023-03-14T15:38:03;8.60;99.90
14687;DHT22;7431;49.440;11.084;2023-03-14T15:40:29;8.60;99.90
14687;DHT22;7431;49.440;11.084;2023-03-14T15:42:54;8.60;99.90
14687;DHT22;7431;49.440;11.084;2023-03-14T15:45:20;8.70;99.90
14687;DHT22;7431;49.440;11.084;2023-03-14T15:47:45;8.70;99.90
14687;DHT22;7431;49.440;11.084;2023-03-14T15:50:11;8.80;99.90
14687;DHT22;7431;49.440;11.084;2023-03-14T15:52:37;8.90;99.90
14687;DHT22;7431;49.440;11.084;2023-03-14T15:55:03;9.00;99.90
14687;DHT22;7431;49.440;11.084;2023-03-14T15:57:29;9.00;99.90
14687;DHT22;7431;49.440;11.084;2023-03-14T15:59:54;9.10;99.90
14687;DHT22;7431;49.440;11.084;2023-03-14T16:02:20;9.20;99.90
